createdAt,value
2022-12-26T00:01:45.957Z,92052.69
2022-12-26T00:04:48.624Z,92030.69
2022-12-26T00:06:58.710Z,91942.22
2022-12-26T00:09:25.109Z,91876.78
2022-12-26T00:11:51.465Z,91780.97
2022-12-26T00:14:17.919Z,91687.56
2022-12-26T00:16:45.180Z,91577.41
2022-12-26T00:19:11.601Z,91507.78
2022-12-26T00:21:38.039Z,91412.03
2022-12-26T00:24:04.602Z,91359.72
2022-12-26T00:26:31.983Z,91263.44
2022-12-26T00:28:58.413Z,91228.91
2022-12-26T00:31:27.660Z,91197.50
2022-12-26T00:33:54.109Z,91175.28
2022-12-26T00:36:24.916Z,91146.53
2022-12-26T00:38:51.478Z,91131.66
2022-12-26T00:41:21.472Z,91096.88
2022-12-26T00:43:48.170Z,91059.19
2022-12-26T00:46:14.759Z,91017.59
2022-12-26T00:48:41.154Z,90963.75
2022-12-26T00:51:07.547Z,90903.09
2022-12-26T00:53:33.947Z,90829.09
2022-12-26T00:56:00.363Z,90757.19
2022-12-26T00:58:26.780Z,90704.97
2022-12-26T01:00:53.490Z,90664.75
2022-12-26T01:03:20.018Z,90598.91
2022-12-26T01:05:50.662Z,90534.59
2022-12-26T01:08:20.243Z,90470.59
2022-12-26T01:10:50.279Z,90417.84
2022-12-26T01:13:16.640Z,90379.69
2022-12-26T01:15:48.722Z,90351.22
2022-12-26T01:18:15.070Z,90312.28
2022-12-26T01:20:41.680Z,90288.09
2022-12-26T01:23:08.040Z,90264.09
2022-12-26T01:25:34.402Z,90237.47
2022-12-26T01:28:00.763Z,90198.59
2022-12-26T01:30:27.114Z,90157.25
2022-12-26T01:32:53.459Z,90128.78
2022-12-26T01:35:19.979Z,90081.91
2022-12-26T01:37:46.342Z,90061.00
2022-12-26T01:40:12.779Z,90037.19
2022-12-26T01:42:39.931Z,90013.50
2022-12-26T01:45:24.134Z,89994.41
2022-12-26T01:47:59.732Z,89981.69
2022-12-26T01:50:28.232Z,89980.91
2022-12-26T01:52:54.607Z,89964.13
2022-12-26T01:55:21.227Z,89948.00
2022-12-26T01:57:55.822Z,89939.09
2022-12-26T02:00:22.411Z,89932.31
2022-12-26T02:03:07.511Z,89933.06
2022-12-26T02:05:33.937Z,89947.22
2022-12-26T02:08:19.398Z,89946.44
2022-12-26T02:10:55.626Z,89946.91
2022-12-26T02:13:21.989Z,89972.28
2022-12-26T02:15:48.417Z,90001.03
2022-12-26T02:18:14.838Z,90020.56
2022-12-26T02:20:47.314Z,90065.75
2022-12-26T02:23:41.573Z,90116.50
2022-12-26T02:26:35.728Z,90181.63
2022-12-26T02:29:36.248Z,90256.97
2022-12-26T02:32:29.537Z,90329.66
2022-12-26T02:35:07.391Z,90405.66
2022-12-26T02:37:44.214Z,90496.84
2022-12-26T02:40:48.462Z,90604.47
2022-12-26T02:43:27.880Z,90750.84
2022-12-26T02:46:33.588Z,90878.19
2022-12-26T02:49:05.696Z,91012.25
2022-12-26T02:52:01.555Z,91139.84
2022-12-26T02:55:10.321Z,91264.81
2022-12-26T02:58:07.458Z,91364.66
2022-12-26T03:00:52.482Z,91440.97
2022-12-26T03:03:39.109Z,91521.53
2022-12-26T03:06:33.969Z,91607.00
2022-12-26T03:09:20.669Z,91681.00
2022-12-26T03:12:15.272Z,91738.78
2022-12-26T03:14:44.855Z,91816.72
2022-12-26T03:17:21.809Z,91902.25
2022-12-26T03:20:00.475Z,91982.28
2022-12-26T03:22:50.063Z,92073.81
2022-12-26T03:25:39.312Z,92146.53
2022-12-26T03:28:05.695Z,92191.22
2022-12-26T03:30:50.408Z,92226.56
2022-12-26T03:33:37.068Z,92267.88
2022-12-26T03:36:03.847Z,92277.78
2022-12-26T03:38:36.393Z,92292.38
2022-12-26T03:41:25.983Z,92282.47
2022-12-26T03:44:28.067Z,92274.63
2022-12-26T03:47:17.043Z,92274.63
2022-12-26T03:50:04.042Z,92266.22
2022-12-26T03:52:52.381Z,92249.50
2022-12-26T03:55:37.121Z,92230.69
2022-12-26T03:58:41.255Z,92243.53
2022-12-26T04:01:39.411Z,92216.53
2022-12-26T04:04:30.772Z,92190.94
2022-12-26T04:07:36.096Z,92170.00
2022-12-26T04:10:44.369Z,92171.59
2022-12-26T04:13:41.207Z,92165.31
2022-12-26T04:16:51.378Z,92154.31
2022-12-26T04:19:26.897Z,92160.63
2022-12-26T04:22:26.796Z,92189.66
2022-12-26T04:25:50.737Z,92187.75
2022-12-26T04:28:31.962Z,92190.84
2022-12-26T04:31:40.444Z,92197.59
2022-12-26T04:34:27.515Z,92175.06
2022-12-26T04:37:15.031Z,92164.53
2022-12-26T04:40:00.392Z,92161.09
2022-12-26T04:42:45.293Z,92158.69
2022-12-26T04:45:11.867Z,92129.88
2022-12-26T04:47:38.219Z,92120.69
2022-12-26T04:50:12.140Z,92111.22
2022-12-26T04:52:59.905Z,92081.66
2022-12-26T04:55:33.564Z,92043.47
2022-12-26T04:58:00.019Z,92035.09
2022-12-26T05:00:28.001Z,92028.81
2022-12-26T05:03:18.801Z,92007.91
2022-12-26T05:06:06.113Z,91983.31
2022-12-26T05:08:54.256Z,91971.06
2022-12-26T05:11:20.726Z,91944.38
2022-12-26T05:13:47.135Z,91926.34
2022-12-26T05:16:32.310Z,91901.25
2022-12-26T05:19:17.116Z,91860.53
2022-12-26T05:22:02.171Z,91837.59
2022-12-26T05:24:49.821Z,91825.53
2022-12-26T05:27:35.143Z,91787.16
2022-12-26T05:30:01.683Z,91752.41
2022-12-26T05:32:46.926Z,91729.94
2022-12-26T05:35:13.398Z,91711.13
2022-12-26T05:37:39.968Z,91709.03
2022-12-26T05:40:07.051Z,91706.97
2022-12-26T05:42:33.633Z,91719.00
2022-12-26T05:44:59.980Z,91730.47
2022-12-26T05:47:26.889Z,91730.19
2022-12-26T05:49:53.244Z,91737.03
2022-12-26T05:52:19.896Z,91732.06
2022-12-26T05:54:46.291Z,91731.03
2022-12-26T05:57:12.707Z,91743.03
2022-12-26T05:59:39.052Z,91757.72
2022-12-26T06:02:05.478Z,91768.94
2022-12-26T06:04:33.694Z,91777.56
2022-12-26T06:07:00.266Z,91790.16
2022-12-26T06:09:26.648Z,91800.59
2022-12-26T06:11:53.001Z,91807.38
2022-12-26T06:14:19.382Z,91823.31
2022-12-26T06:16:45.771Z,91832.19
2022-12-26T06:19:12.156Z,91820.69
2022-12-26T06:21:38.541Z,91818.34
2022-12-26T06:24:05.449Z,91820.44
2022-12-26T06:26:31.874Z,91804.22
2022-12-26T06:28:58.311Z,91785.41
2022-12-26T06:31:24.837Z,91782.81
2022-12-26T06:33:54.879Z,91786.47
2022-12-26T06:36:22.596Z,91789.06
2022-12-26T06:38:49.267Z,91804.75
2022-12-26T06:41:17.289Z,91827.47
2022-12-26T06:43:43.924Z,91849.69
2022-12-26T06:46:13.147Z,91870.09
2022-12-26T06:48:39.950Z,91918.75
2022-12-26T06:51:08.221Z,91976.22
2022-12-26T06:53:34.652Z,92050.97
2022-12-26T06:56:11.795Z,92118.38
2022-12-26T06:58:38.335Z,92203.13
2022-12-26T07:01:09.829Z,92282.56
2022-12-26T07:03:36.527Z,92344.94
2022-12-26T07:06:17.278Z,92398.97
2022-12-26T07:08:43.620Z,92407.81
2022-12-26T07:11:17.618Z,92403.09
2022-12-26T07:13:44.018Z,92408.16
2022-12-26T07:16:10.945Z,92413.38
2022-12-26T07:18:38.064Z,92412.31
2022-12-26T07:21:08.943Z,92420.38
2022-12-26T07:23:35.436Z,92419.56
2022-12-26T07:26:01.836Z,92425.59
2022-12-26T07:28:28.281Z,92444.13
2022-12-26T07:30:54.674Z,92456.59
2022-12-26T07:33:21.072Z,92464.22
2022-12-26T07:35:47.457Z,92488.59
2022-12-26T07:38:14.017Z,92541.31
2022-12-26T07:40:40.479Z,92595.19
2022-12-26T07:43:06.854Z,92652.66
2022-12-26T07:45:33.237Z,92708.53
2022-12-26T07:47:59.848Z,92750.81
2022-12-26T07:50:26.695Z,92787.38
2022-12-26T07:52:53.425Z,92820.00
2022-12-26T07:55:19.808Z,92852.59
2022-12-26T07:57:50.413Z,92882.31
2022-12-26T08:00:18.788Z,92908.91
2022-12-26T08:02:48.281Z,92935.47
2022-12-26T08:05:15.601Z,92956.38
2022-12-26T08:07:42.012Z,92980.44
2022-12-26T08:10:08.739Z,93035.31
2022-12-26T08:12:35.228Z,93093.38
2022-12-26T08:15:01.637Z,93167.09
2022-12-26T08:17:28.203Z,93230.03
2022-12-26T08:19:54.627Z,93267.03
2022-12-26T08:22:20.997Z,93311.66
2022-12-26T08:24:47.377Z,93345.41
2022-12-26T08:27:13.775Z,93362.31
2022-12-26T08:29:40.163Z,93390.59
2022-12-26T08:32:06.538Z,93462.78
2022-12-26T08:34:33.815Z,93545.16
2022-12-26T08:37:00.212Z,93630.34
2022-12-26T08:39:27.236Z,93697.09
2022-12-26T08:41:53.651Z,93769.84
2022-12-26T08:44:28.295Z,93826.91
2022-12-26T08:46:55.167Z,93841.81
2022-12-26T08:49:21.641Z,93843.81
2022-12-26T08:51:48.026Z,93870.56
2022-12-26T08:54:14.385Z,93878.78
2022-12-26T08:56:40.898Z,93884.84
2022-12-26T08:59:07.654Z,93888.84
2022-12-26T09:01:34.232Z,93878.78
2022-12-26T09:04:02.417Z,93897.28
2022-12-26T09:06:29.202Z,93914.56
2022-12-26T09:08:55.664Z,93943.72
2022-12-26T09:11:23.621Z,93992.97
2022-12-26T09:13:50.039Z,94032.78
2022-12-26T09:16:18.929Z,94079.81
2022-12-26T09:18:45.573Z,94144.16
2022-12-26T09:21:12.841Z,94204.13
2022-12-26T09:23:39.551Z,94313.53
2022-12-26T09:26:07.163Z,94420.50
2022-12-26T09:28:33.697Z,94494.16
2022-12-26T09:31:04.758Z,94534.97
2022-12-26T09:33:33.261Z,94564.09
2022-12-26T09:36:04.571Z,94548.41
2022-12-26T09:38:32.769Z,94556.91
2022-12-26T09:41:23.197Z,94578.25
2022-12-26T09:43:58.706Z,94575.44
2022-12-26T09:46:29.552Z,94578.84
2022-12-26T09:49:11.499Z,94585.50
2022-12-26T09:51:38.100Z,94594.00
2022-12-26T09:54:05.675Z,94589.56
2022-12-26T09:59:20.516Z,94546.78
2022-12-26T10:01:49.870Z,94502.16
2022-12-26T10:04:29.899Z,94485.06
2022-12-26T10:07:15.625Z,94538.06
2022-12-26T10:10:11.767Z,94572.06
2022-12-26T10:13:03.310Z,94605.88
2022-12-26T10:15:43.621Z,94572.84
2022-12-26T10:18:29.024Z,94554.53
2022-12-26T10:21:27.715Z,94565.00
2022-12-26T10:24:12.762Z,94531.41
2022-12-26T10:26:41.268Z,94496.38
2022-12-26T10:29:07.674Z,94430.41
2022-12-26T10:31:45.174Z,94395.75
2022-12-26T10:34:25.044Z,94298.78
2022-12-26T10:36:59.291Z,94219.72
2022-12-26T10:39:35.022Z,94159.16
2022-12-26T10:42:29.159Z,94105.28
2022-12-26T10:44:55.607Z,94078.31
2022-12-26T10:47:38.857Z,94097.25
2022-12-26T10:50:05.831Z,94125.00
2022-12-26T10:52:37.665Z,94152.38
2022-12-26T10:55:27.902Z,94183.38
2022-12-26T10:57:52.020Z,94181.34
2022-12-26T11:00:21.031Z,94158.81
2022-12-26T11:03:02.650Z,94209.53
2022-12-26T11:08:24.086Z,94275.75
2022-12-26T11:11:13.300Z,94315.56
2022-12-26T11:13:42.179Z,94381.84
2022-12-26T11:16:08.613Z,94436.59
2022-12-26T11:18:48.536Z,94495.00
2022-12-26T11:21:17.950Z,94521.63
2022-12-26T11:23:48.525Z,94567.97
2022-12-26T11:26:23.683Z,94608.09
2022-12-26T11:29:11.806Z,94702.63
2022-12-26T11:31:39.192Z,94807.06
2022-12-26T11:34:09.951Z,94899.78
2022-12-26T11:36:36.541Z,94962.72
2022-12-26T11:39:24.212Z,95018.34
2022-12-26T11:41:50.592Z,95077.25
2022-12-26T11:44:23.746Z,95130.91
2022-12-26T11:46:53.356Z,95121.25
2022-12-26T11:49:33.312Z,95134.25
2022-12-26T11:52:01.179Z,95163.97
2022-12-26T11:54:32.355Z,95161.63
2022-12-26T11:57:20.797Z,95116.81
2022-12-26T11:59:47.447Z,95164.25
2022-12-26T12:02:18.252Z,95121.72
2022-12-26T12:04:48.201Z,95120.88
2022-12-26T12:07:20.791Z,95067.78
2022-12-26T12:09:56.635Z,95039.31
2022-12-26T12:12:22.985Z,95024.41
2022-12-26T12:15:21.715Z,94990.53
2022-12-26T12:17:56.206Z,94977.19
2022-12-26T12:20:30.070Z,95129.53
2022-12-26T12:23:19.576Z,95278.34
2022-12-26T12:26:13.974Z,95349.06
2022-12-26T12:29:05.048Z,95302.09
2022-12-26T12:31:37.514Z,95323.84
2022-12-26T12:34:06.985Z,95429.59
2022-12-26T12:36:57.013Z,95460.03
2022-12-26T12:40:05.835Z,95478.09
2022-12-26T12:42:42.300Z,95586.81
2022-12-26T12:45:28.048Z,95679.97
2022-12-26T12:48:09.809Z,95763.00
2022-12-26T12:50:58.220Z,95866.53
2022-12-26T12:53:43.119Z,95929.25
2022-12-26T12:56:19.316Z,95991.00
2022-12-26T12:58:55.315Z,96065.22
2022-12-26T13:01:25.480Z,96070.78
2022-12-26T13:03:56.846Z,96048.31
2022-12-26T13:06:27.658Z,95989.50
2022-12-26T13:08:59.805Z,96000.97
2022-12-26T13:11:27.272Z,96008.97
2022-12-26T13:14:07.504Z,96034.38
2022-12-26T13:16:43.372Z,96053.53
2022-12-26T13:19:19.247Z,96019.94
2022-12-26T13:21:46.005Z,96042.69
2022-12-26T13:24:43.348Z,96044.03
2022-12-26T13:27:24.618Z,96023.75
2022-12-26T13:29:52.384Z,96044.38
2022-12-26T13:32:25.619Z,96021.13
2022-12-26T13:34:53.550Z,96031.13
2022-12-26T13:37:35.210Z,96046.69
2022-12-26T13:40:03.222Z,96028.66
2022-12-26T13:42:58.068Z,96013.25
2022-12-26T13:45:42.849Z,95999.47
2022-12-26T13:48:15.063Z,95997.84
2022-12-26T13:51:00.992Z,95984.75
2022-12-26T13:53:32.041Z,95986.53
2022-12-26T13:55:59.194Z,96027.66
2022-12-26T13:58:31.928Z,96047.28
2022-12-26T14:01:12.803Z,96053.50
2022-12-26T14:03:57.869Z,96054.44
2022-12-26T14:06:45.366Z,96073.47
2022-12-26T14:09:16.374Z,96141.44
2022-12-26T14:11:49.625Z,96099.16
2022-12-26T14:14:52.403Z,96034.44
2022-12-26T14:17:26.280Z,96092.25
2022-12-26T14:19:58.658Z,96082.78
2022-12-26T14:22:34.152Z,96062.78
2022-12-26T14:25:23.926Z,96000.22
2022-12-26T14:27:50.264Z,95735.50
2022-12-26T14:30:55.699Z,95429.47
2022-12-26T14:33:40.589Z,95191.28
2022-12-26T14:36:21.565Z,94927.78
2022-12-26T14:38:51.667Z,94736.56
2022-12-26T14:41:36.850Z,94418.28
2022-12-26T14:44:21.354Z,94065.25
2022-12-26T14:46:50.723Z,93822.72
2022-12-26T14:49:40.607Z,93603.69
2022-12-26T14:52:32.229Z,93483.72
2022-12-26T14:54:58.686Z,93414.97
2022-12-26T14:57:47.621Z,93355.81
2022-12-26T15:00:22.806Z,93250.53
2022-12-26T15:03:19.959Z,93093.06
2022-12-26T15:05:47.028Z,92971.09
2022-12-26T15:08:39.788Z,92839.13
2022-12-26T15:11:24.475Z,92707.88
2022-12-26T15:14:15.145Z,92591.13
2022-12-26T15:17:02.708Z,92491.94
2022-12-26T15:19:37.895Z,92437.19
2022-12-26T15:22:07.338Z,92399.56
2022-12-26T15:27:57.819Z,92303.34
2022-12-26T15:30:52.285Z,92270.81
2022-12-26T15:33:27.016Z,92303.16
2022-12-26T15:36:05.250Z,92340.34
2022-12-26T15:38:40.641Z,92579.31
2022-12-26T15:41:11.941Z,92904.16
2022-12-26T15:43:59.655Z,93363.22
2022-12-26T15:46:35.580Z,93925.84
2022-12-26T15:49:20.346Z,94383.88
2022-12-26T15:51:56.391Z,94704.41
2022-12-26T15:55:00.241Z,94952.81
2022-12-26T15:57:48.507Z,95140.66
2022-12-26T16:00:22.631Z,95227.22
2022-12-26T16:03:07.641Z,95243.63
2022-12-26T16:05:52.532Z,95263.41
2022-12-26T16:08:46.088Z,95258.53
2022-12-26T16:11:25.865Z,95292.31
2022-12-26T16:14:00.904Z,95245.75
2022-12-26T16:16:37.430Z,95209.94
2022-12-26T16:19:23.894Z,95154.19
2022-12-26T16:22:11.398Z,95137.56
2022-12-26T16:24:38.459Z,95145.50
2022-12-26T16:27:06.530Z,95127.97
2022-12-26T16:29:32.905Z,95142.25
2022-12-26T16:32:06.226Z,95195.94
2022-12-26T16:34:35.486Z,95227.69
2022-12-26T16:37:02.251Z,95257.28
2022-12-26T16:39:28.633Z,95272.06
2022-12-26T16:42:36.288Z,95291.59
2022-12-26T16:45:02.791Z,95333.81
2022-12-26T16:47:30.876Z,95481.78
2022-12-26T16:49:58.501Z,95604.78
2022-12-26T16:52:42.095Z,95629.19
2022-12-26T16:55:26.501Z,95597.41
2022-12-26T16:57:54.020Z,95574.28
2022-12-26T17:00:20.505Z,95599.91
2022-12-26T17:02:47.866Z,95701.78
2022-12-26T17:05:21.278Z,95800.09
2022-12-26T17:07:48.581Z,95845.56
2022-12-26T17:10:33.633Z,95941.53
2022-12-26T17:13:01.894Z,96074.44
2022-12-26T17:15:30.727Z,96145.66
2022-12-26T17:17:58.793Z,96173.97
2022-12-26T17:20:29.331Z,96264.63
2022-12-26T17:22:56.006Z,96291.34
2022-12-26T17:25:26.551Z,96315.25
2022-12-26T17:28:08.545Z,96341.25
2022-12-26T17:30:44.569Z,96419.75
2022-12-26T17:33:19.759Z,96553.34
2022-12-26T17:36:45.316Z,96574.38
2022-12-26T17:38:44.511Z,96610.50
2022-12-26T17:41:13.739Z,96635.81
2022-12-26T17:43:40.524Z,96669.59
2022-12-26T17:46:08.426Z,96661.06
2022-12-26T17:48:34.974Z,96654.56
2022-12-26T17:51:06.221Z,96627.13
2022-12-26T17:53:34.537Z,96579.97
2022-12-26T17:56:05.472Z,96518.84
2022-12-26T17:58:31.978Z,96489.31
2022-12-26T18:00:59.169Z,96471.72
2022-12-26T18:03:25.750Z,96465.09
2022-12-26T18:05:52.383Z,96490.94
2022-12-26T18:08:33.153Z,96495.88
2022-12-26T18:11:00.323Z,96519.16
2022-12-26T18:13:26.769Z,96560.53
2022-12-26T18:15:53.695Z,96563.47
2022-12-26T18:18:29.006Z,96588.03
2022-12-26T18:20:55.498Z,96615.66
2022-12-26T18:23:22.969Z,96653.91
2022-12-26T18:25:54.325Z,96699.22
2022-12-26T18:28:21.072Z,96728.28
2022-12-26T18:30:47.483Z,96752.31
2022-12-26T18:33:13.947Z,96753.25
2022-12-26T18:35:41.156Z,96721.06
2022-12-26T18:38:07.598Z,96667.25
2022-12-26T18:40:36.187Z,96609.41
2022-12-26T18:43:03.438Z,96553.19
2022-12-26T18:45:30.010Z,96491.34
2022-12-26T18:47:56.759Z,96447.94
2022-12-26T18:50:23.323Z,96416.03
2022-12-26T18:52:53.554Z,96412.97
2022-12-26T18:55:21.441Z,96393.34
2022-12-26T18:57:47.996Z,96390.28
2022-12-26T19:00:16.130Z,96385.28
2022-12-26T19:02:42.530Z,96396.84
2022-12-26T19:05:15.857Z,96421.59
2022-12-26T19:07:42.205Z,96427.50
2022-12-26T19:10:10.338Z,96478.66
2022-12-26T19:12:36.757Z,96498.94
2022-12-26T19:15:03.286Z,96553.03
2022-12-26T19:17:29.675Z,96558.53
2022-12-26T19:19:56.221Z,96552.09
2022-12-26T19:22:22.582Z,96623.31
2022-12-26T19:24:48.925Z,96648.75
2022-12-26T19:27:15.370Z,96661.09
2022-12-26T19:29:41.747Z,96717.56
2022-12-26T19:32:08.183Z,96771.19
2022-12-26T19:34:34.607Z,96800.13
2022-12-26T19:37:00.957Z,96810.28
2022-12-26T19:39:28.051Z,96837.91
2022-12-26T19:41:54.437Z,96865.06
2022-12-26T19:44:20.833Z,96907.41
2022-12-26T19:46:47.607Z,96903.91
2022-12-26T19:49:14.000Z,96865.88
2022-12-26T19:51:40.419Z,96890.97
2022-12-26T19:54:06.882Z,96879.13
2022-12-26T19:56:34.063Z,96889.84
2022-12-26T19:59:00.496Z,96863.94
2022-12-26T20:01:28.979Z,96891.72
2022-12-26T20:03:56.962Z,96900.22
2022-12-26T20:06:24.041Z,96893.56
2022-12-26T20:08:50.486Z,96902.69
2022-12-26T20:11:18.727Z,96887.13
2022-12-26T20:13:45.189Z,96889.16
2022-12-26T20:16:37.483Z,96913.44
2022-12-26T20:18:59.617Z,96940.47
2022-12-26T20:21:25.990Z,96956.94
2022-12-26T20:23:52.351Z,96950.94
2022-12-26T20:26:24.469Z,96914.47
2022-12-26T20:28:50.810Z,96916.03
2022-12-26T20:31:19.234Z,96890.91
2022-12-26T20:33:46.464Z,96892.34
2022-12-26T20:36:20.020Z,96904.28
2022-12-26T20:38:46.726Z,96877.50
2022-12-26T20:41:13.618Z,96881.22
2022-12-26T20:43:40.160Z,96886.41
2022-12-26T20:46:07.803Z,96872.41
2022-12-26T20:48:34.338Z,96844.56
2022-12-26T20:51:03.071Z,96805.88
2022-12-26T20:53:29.407Z,96841.25
2022-12-26T20:55:58.765Z,96844.69
2022-12-26T20:58:26.072Z,96846.66
2022-12-26T21:01:03.019Z,96824.22
2022-12-26T21:03:30.224Z,96816.44
2022-12-26T21:06:13.887Z,96808.19
2022-12-26T21:08:41.791Z,96827.47
2022-12-26T21:11:10.815Z,96828.13
2022-12-26T21:13:37.356Z,96822.94
2022-12-26T21:16:14.852Z,96814.41
2022-12-26T21:18:41.471Z,96823.13
2022-12-26T21:21:19.549Z,96809.13
2022-12-26T21:23:46.151Z,96806.34
2022-12-26T21:26:12.614Z,96793.31
2022-12-26T21:28:39.152Z,96800.16
2022-12-26T21:31:09.560Z,96801.00
2022-12-26T21:33:42.322Z,96802.81
2022-12-26T21:36:11.740Z,96794.97
2022-12-26T21:38:38.164Z,96791.84
2022-12-26T21:41:07.751Z,96788.50
2022-12-26T21:43:34.206Z,96787.03
2022-12-26T21:46:01.424Z,96775.00
2022-12-26T21:48:27.993Z,96757.16
2022-12-26T21:50:54.578Z,96751.97
2022-12-26T21:53:21.331Z,96744.75
2022-12-26T21:55:47.706Z,96727.63
2022-12-26T21:58:20.173Z,96728.66
2022-12-26T22:00:46.546Z,96733.00
2022-12-26T22:03:42.116Z,96766.06
2022-12-26T22:06:15.147Z,96764.84
2022-12-26T22:08:43.812Z,96780.19
2022-12-26T22:11:35.283Z,96789.63
2022-12-26T22:14:01.649Z,96812.13
2022-12-26T22:16:29.780Z,96843.84
2022-12-26T22:18:56.126Z,96873.28
2022-12-26T22:21:22.871Z,96900.22
2022-12-26T22:23:52.067Z,96926.97
2022-12-26T22:26:19.185Z,96917.16
2022-12-26T22:28:45.785Z,96933.81
2022-12-26T22:31:21.386Z,96940.00
2022-12-26T22:33:48.463Z,96943.50
2022-12-26T22:36:14.836Z,96931.69
2022-12-26T22:38:41.190Z,96917.59
2022-12-26T22:41:07.593Z,96928.16
2022-12-26T22:43:33.964Z,96927.53
2022-12-26T22:46:00.466Z,96920.66
2022-12-26T22:48:26.975Z,96901.41
2022-12-26T22:50:54.681Z,96890.31
2022-12-26T22:53:27.996Z,96877.06
2022-12-26T22:56:02.008Z,96866.63
2022-12-26T22:58:28.454Z,96859.59
2022-12-26T23:00:54.925Z,96860.88
2022-12-26T23:03:21.416Z,96853.28
2022-12-26T23:05:48.099Z,96845.53
2022-12-26T23:08:17.298Z,96827.38
2022-12-26T23:10:44.053Z,96822.41
2022-12-26T23:13:14.042Z,96819.81
2022-12-26T23:15:49.404Z,96813.88
2022-12-26T23:18:53.803Z,96823.63
2022-12-26T23:21:44.439Z,96814.28
2022-12-26T23:24:19.570Z,96817.59
2022-12-26T23:26:51.328Z,96820.94
2022-12-26T23:29:37.508Z,96831.31
2022-12-26T23:32:04.302Z,96819.72
2022-12-26T23:34:30.737Z,96836.47
2022-12-26T23:36:57.137Z,96836.47
2022-12-26T23:39:23.532Z,96840.91
2022-12-26T23:41:49.897Z,96836.66
2022-12-26T23:44:16.648Z,96819.47
2022-12-26T23:46:44.470Z,96805.13
2022-12-26T23:49:14.654Z,96782.44
2022-12-26T23:51:41.671Z,96767.03
2022-12-26T23:54:08.458Z,96753.22
2022-12-26T23:56:37.899Z,96751.66
2022-12-26T23:59:04.820Z,96741.31
